Today's 10 Minute Log



Time Temperature  Humidity  Dewpoint    Barometer Average speed Gust speed   Direction  Rain last min  Daily rain  Monthly rain Yearly rain Heatindex 
00:10       45.6      60       32.5      30.056      11.9           12.0           316         0.000        0.000        0.090        1.810      45.6
00:20       44.8      59       31.3      30.065      8.5           13.0           312         0.000        0.000        0.090        1.810      44.8
00:30       44.3      60       31.3      30.067      7.6           11.0           316         0.000        0.000        0.090        1.810      44.3
00:40       43.7      60       30.7      30.075      8.2           11.0           318         0.000        0.000        0.090        1.810      43.7
00:50       43.8      62       31.6      30.079      6.7           8.0           317         0.000        0.000        0.090        1.810      43.8
01:00       43.7      62       31.5      30.082      0.0           0.0           316         0.000        0.000        0.090        1.810      43.7
01:10       43.8      63       32.0      30.080      0.0           0.0           316         0.000        0.000        0.090        1.810      43.8
01:20       42.9      63       31.2      30.078      0.0           0.0           316         0.000        0.000        0.090        1.810      42.9
01:30       42.1      64       30.7      30.075      0.0           0.0           315         0.000        0.000        0.090        1.810      42.1
01:40       41.1      64       29.9      30.074      0.0           0.0           302         0.000        0.000        0.090        1.810      41.1
01:50       40.1      65       29.3      30.074      0.0           0.0           302         0.000        0.000        0.090        1.810      40.1
02:00       39.2      68       29.5      30.072      0.0           0.0           302         0.000        0.000        0.090        1.810      39.2
02:10       38.3      69       29.0      30.069      0.0           0.0           302         0.000        0.000        0.090        1.810      38.3
02:20       37.6      68       28.0      30.072      0.0           0.0           302         0.000        0.000        0.090        1.810      37.6
02:30       36.8      70       27.9      30.068      0.0           0.0           302         0.000        0.000        0.090        1.810      36.8
02:40       36.4      72       28.2      30.069      0.0           0.0           302         0.000        0.000        0.090        1.810      36.4
02:50       36.5      72       28.4      30.069      0.0           0.0           302         0.000        0.000        0.090        1.810      36.5
03:00       37.2      74       29.6      30.069      0.0           0.0           302         0.000        0.000        0.090        1.810      37.2
03:10       37.8      75       30.6      30.069      0.0           0.0           302         0.000        0.000        0.090        1.810      37.8
03:20       38.5      76       31.6      30.072      0.0           0.0           302         0.000        0.000        0.090        1.810      38.5
03:30       38.8      77       32.2      30.073      0.0           0.0           302         0.000        0.000        0.090        1.810      38.8
03:40       39.3      76       32.4      30.074      0.0           0.0           302         0.000        0.000        0.090        1.810      39.3
03:50       39.6      75       32.3      30.076      0.0           0.0           302         0.000        0.000        0.090        1.810      39.6
04:00       40.0      74       32.4      30.074      0.0           0.0           322         0.000        0.000        0.090        1.810      40.0
04:10       41.5      70       32.4      30.075      4.5           12.0           334         0.000        0.000        0.090        1.810      41.5
04:20       41.7      68       31.9      30.077      5.2           8.0           327         0.000        0.000        0.090        1.810      41.7
04:30       41.5      67       31.3      30.077      1.2           2.0           332         0.000        0.000        0.090        1.810      41.5
04:40       41.1      67       31.0      30.079      1.2           3.0           317         0.000        0.000        0.090        1.810      41.1
04:50       40.9      68       31.1      30.079      0.8           3.0           316         0.000        0.000        0.090        1.810      40.9
05:00       40.8      68       31.0      30.078      0.5           0.0           314         0.000        0.000        0.090        1.810      40.8
05:10       40.6      68       30.9      30.075      0.0           1.0           321         0.000        0.000        0.090        1.810      40.6
05:20       40.5      68       30.8      30.080      0.0           0.0           319         0.000        0.000        0.090        1.810      40.5
05:30       40.5      68       30.7      30.083      0.6           2.0           304         0.000        0.000        0.090        1.810      40.5
05:40       40.3      69       30.9      30.080      2.5           6.0           300         0.000        0.000        0.090        1.810      40.3
05:50       40.1      69       30.7      30.079      3.1           4.0           306         0.000        0.000        0.090        1.810      40.1
06:00       40.1      70       31.1      30.083      3.6           6.0           317         0.000        0.000        0.090        1.810      40.1
06:10       40.1      70       31.1      30.081      0.1           2.0           316         0.000        0.000        0.090        1.810      40.1
06:20       40.2      71       31.5      30.083      0.8           6.0           338         0.000        0.000        0.090        1.810      40.2
06:30       40.1      71       31.4      30.087      3.2           7.0           311         0.000        0.000        0.090        1.810      40.1
06:40       40.1      71       31.4      30.085      3.8           8.0           313         0.000        0.000        0.090        1.810      40.1
06:50       40.0      72       31.7      30.088      3.4           4.0           325         0.000        0.000        0.090        1.810      40.0
07:00       39.7      74       32.1      30.086      2.9           4.0           337         0.000        0.000        0.090        1.810      39.7
07:10       39.4      76       32.5      30.090      4.2           11.0           338         0.000        0.000        0.090        1.810      39.4
07:20       39.0      76       32.1      30.093      4.2           6.0           332         0.000        0.000        0.090        1.810      39.0
07:30       38.8      75       31.5      30.094      5.2           8.0           336         0.000        0.000        0.090        1.810      38.8
07:40       38.5      74       30.9      30.094      3.9           5.0           334         0.000        0.000        0.090        1.810      38.5
07:50       38.4      74       30.8      30.093      11.4           19.0           327         0.000        0.000        0.090        1.810      38.4
08:00       38.5      74       30.9      30.100      12.7           17.0           316         0.000        0.000        0.090        1.810      38.5
08:10       38.3      73       30.4      30.100      11.5           15.0           324         0.000        0.000        0.090        1.810      38.3
08:20       38.4      74       30.8      30.098      11.5           18.0           326         0.000        0.000        0.090        1.810      38.4
08:30       38.7      73       30.8      30.098      3.4           6.0           328         0.000        0.000        0.090        1.810      38.7
08:40       39.1      71       30.5      30.100      3.9           7.0           340         0.000        0.000        0.090        1.810      39.1
08:50       39.1      70       30.1      30.098      7.3           11.0           335         0.000        0.000        0.090        1.810      39.1
09:00       39.1      69       29.8      30.098      5.3           15.0           333         0.000        0.000        0.090        1.810      39.1
09:10       39.2      68       29.5      30.098      10.0           13.0           333         0.000        0.000        0.090        1.810      39.2
09:20       39.3      69       30.0      30.096      4.0           9.0           338         0.000        0.000        0.090        1.810      39.3
09:30       39.6      67       29.5      30.095      7.7           14.0           314         0.000        0.000        0.090        1.810      39.6
09:40       39.9      64       28.7      30.094      6.5           18.0           326         0.000        0.000        0.090        1.810      39.9
09:50       39.9      63       28.3      30.096      5.0           7.0           330         0.000        0.000        0.090        1.810      39.9
10:00       39.9      62       27.9      30.095      3.1           6.0           335         0.000        0.000        0.090        1.810      39.9
10:10       40.2      62       28.2      30.095      4.6           10.0           333         0.000        0.000        0.090        1.810      40.2
10:20       40.9      62       28.9      30.095      8.6           13.0           318         0.000        0.000        0.090        1.810      40.9
10:30       41.5      60       28.6      30.091      9.1           16.0           315         0.000        0.000        0.090        1.810      41.5
10:40       42.4      58       28.7      30.089      11.2           16.0           314         0.000        0.000        0.090        1.810      42.4
10:50       42.6      57       28.4      30.091      11.2           14.0           284         0.000        0.000        0.090        1.810      42.6
11:00       42.9      60       30.0      30.090      6.2           12.0           260         0.000        0.000        0.090        1.810      42.9
11:10       42.8      60       29.8      30.092      1.6           1.0           250         0.000        0.000        0.090        1.810      42.8
11:20       43.0      60       30.0      30.095      0.0           0.0           210         0.000        0.000        0.090        1.810      43.0
11:30       43.3      60       30.3      30.094      1.5           4.0           200         0.000        0.000        0.090        1.810      43.3
11:40       43.4      60       30.4      30.095      0.1           1.0           204         0.000        0.000        0.090        1.810      43.4
11:50       43.6      61       31.0      30.097      2.0           3.0           195         0.000        0.000        0.090        1.810      43.6
12:00       43.2      54       27.7      30.100      2.5           15.0           321         0.000        0.000        0.090        1.810      43.2
12:10       43.6      52       27.2      30.099      2.0           7.0           345         0.000        0.000        0.090        1.810      43.6